createdAt,value
2023-04-15T00:00:28.907Z,100488.38
2023-04-15T00:05:32.414Z,100487.75
2023-04-15T00:10:36.351Z,100492.53
2023-04-15T00:15:39.392Z,100485.00
2023-04-15T00:20:42.217Z,100483.84
2023-04-15T00:25:46.129Z,100487.56
2023-04-15T00:30:48.820Z,100488.16
2023-04-15T00:35:51.812Z,100483.94
2023-04-15T00:40:56.620Z,100487.78
2023-04-15T00:46:00.581Z,100488.28
2023-04-15T00:51:03.266Z,100495.25
2023-04-15T00:56:08.170Z,100496.84
2023-04-15T01:01:11.333Z,100482.94
2023-04-15T01:06:14.856Z,100491.09
2023-04-15T01:11:19.676Z,100493.19
2023-04-15T01:16:22.382Z,100489.03
2023-04-15T01:21:25.210Z,100488.13
2023-04-15T01:26:29.536Z,100496.25
2023-04-15T01:31:32.284Z,100483.06
2023-04-15T01:36:35.490Z,100486.53
2023-04-15T01:41:40.247Z,100487.69
2023-04-15T01:46:42.823Z,100489.00
2023-04-15T01:51:45.491Z,100492.38
2023-04-15T01:56:50.275Z,100493.75
2023-04-15T02:01:53.242Z,100487.16
2023-04-15T02:06:55.866Z,100491.47
2023-04-15T02:12:00.673Z,100488.47
2023-04-15T02:17:07.353Z,100496.19
2023-04-15T02:22:11.298Z,100496.25
2023-04-15T02:27:18.736Z,100499.84
2023-04-15T02:32:23.137Z,100506.16
2023-04-15T02:37:27.723Z,100503.53
2023-04-15T02:42:33.149Z,100514.03
2023-04-15T02:47:37.297Z,100503.59
2023-04-15T02:52:41.998Z,100520.59
2023-04-15T02:57:46.433Z,100536.72
2023-04-15T03:02:52.219Z,100539.53
2023-04-15T03:07:55.081Z,100450.78
2023-04-15T03:12:59.047Z,100537.34
2023-04-15T03:18:01.674Z,100549.50
2023-04-15T03:23:04.713Z,100556.69
2023-04-15T03:28:08.783Z,100555.44
2023-04-15T03:33:11.469Z,100557.91
2023-04-15T03:38:14.159Z,100552.25
2023-04-15T03:43:18.056Z,100556.03
2023-04-15T03:48:21.022Z,100557.41
2023-04-15T03:53:23.838Z,100564.41
2023-04-15T03:58:28.188Z,100573.66
2023-04-15T04:03:30.988Z,100575.63
2023-04-15T04:08:33.620Z,100587.03
2023-04-15T04:13:38.123Z,100583.34
2023-04-15T04:18:40.807Z,100587.41
2023-04-15T04:23:43.474Z,100593.63
2023-04-15T04:28:47.369Z,100595.78
2023-04-15T04:33:49.903Z,100602.59
2023-04-15T04:38:52.429Z,100607.56
2023-04-15T04:43:56.277Z,100616.81
2023-04-15T04:48:58.809Z,100610.66
2023-04-15T04:54:03.456Z,100620.78
2023-04-15T04:59:07.697Z,100620.28
2023-04-15T05:04:10.699Z,100634.25
2023-04-15T05:09:13.388Z,100634.31
2023-04-15T05:14:17.354Z,100636.59
2023-04-15T05:19:19.945Z,100647.31
2023-04-15T05:24:23.050Z,100646.00
2023-04-15T05:29:27.249Z,100653.53
2023-04-15T05:34:29.774Z,100653.59
2023-04-15T05:39:32.884Z,100678.50
2023-04-15T05:44:36.797Z,100682.56
2023-04-15T05:49:39.354Z,100683.22
2023-04-15T05:54:41.931Z,100687.38
2023-04-15T05:59:45.843Z,100697.47
2023-04-15T06:04:48.400Z,100707.56
2023-04-15T06:09:51.217Z,100712.56
2023-04-15T06:14:55.142Z,100730.09
2023-04-15T06:19:58.106Z,100730.97
2023-04-15T06:25:00.884Z,100733.25
2023-04-15T06:30:05.359Z,100737.31
2023-04-15T06:35:08.391Z,100743.88
2023-04-15T06:40:11.667Z,100751.81
2023-04-15T06:45:15.890Z,100757.28
2023-04-15T06:50:19.036Z,100753.88
2023-04-15T06:55:22.173Z,100764.28
2023-04-15T07:00:26.335Z,100774.06
2023-04-15T07:05:28.912Z,100777.25
2023-04-15T07:10:31.438Z,100783.53
2023-04-15T07:15:35.530Z,100785.41
2023-04-15T07:20:38.310Z,100797.84
2023-04-15T07:25:41.013Z,100815.63
2023-04-15T07:30:44.989Z,100805.66
2023-04-15T07:35:47.672Z,100811.63
2023-04-15T07:40:50.753Z,100812.94
2023-04-15T07:45:55.296Z,100812.03
2023-04-15T07:50:57.870Z,100824.09
2023-04-15T07:56:00.494Z,100814.47
2023-04-15T08:01:05.877Z,100834.38
2023-04-15T08:06:08.451Z,100840.09
2023-04-15T08:11:12.170Z,100849.66
2023-04-15T08:16:19.459Z,100854.00
2023-04-15T08:21:22.724Z,100857.94
2023-04-15T08:26:25.328Z,100864.47
2023-04-15T08:31:30.743Z,100861.53
2023-04-15T08:36:33.587Z,100866.72
2023-04-15T08:41:41.974Z,100869.38
2023-04-15T08:46:45.919Z,100873.81
2023-04-15T08:51:49.513Z,100876.19
2023-04-15T08:56:53.593Z,100882.44
2023-04-15T09:01:58.722Z,100886.66
2023-04-15T09:07:01.375Z,100891.63
2023-04-15T09:12:04.176Z,100893.22
2023-04-15T09:17:11.558Z,100903.06
2023-04-15T09:22:14.308Z,100899.91
2023-04-15T09:27:17.694Z,100873.06
2023-04-15T09:32:24.583Z,100917.28
2023-04-15T09:37:36.526Z,100908.19
2023-04-15T09:42:55.887Z,100913.03
2023-04-15T09:48:01.548Z,100925.47
2023-04-15T09:53:04.767Z,100936.59
2023-04-15T09:58:10.452Z,100941.25
2023-04-15T10:03:18.544Z,100944.13
2023-04-15T10:08:23.759Z,100951.22
2023-04-15T10:13:28.622Z,100955.88
2023-04-15T10:18:36.179Z,100964.75
2023-04-15T10:23:39.751Z,100969.50
2023-04-15T10:28:42.514Z,100958.53
2023-04-15T10:34:06.057Z,100972.13
2023-04-15T10:39:42.866Z,100975.75
2023-04-15T10:44:49.310Z,100977.34
2023-04-15T10:50:00.466Z,100945.84
2023-04-15T10:55:05.308Z,100971.22
2023-04-15T11:00:13.807Z,100975.41
2023-04-15T11:05:18.885Z,100992.94
2023-04-15T11:10:55.146Z,100994.38
2023-04-15T11:16:02.551Z,100966.44
2023-04-15T11:21:09.341Z,101006.47
2023-04-15T11:26:12.675Z,100967.16
2023-04-15T11:31:17.796Z,101023.56
2023-04-15T11:36:22.108Z,101018.31
2023-04-15T11:41:24.995Z,101024.09
2023-04-15T11:46:30.631Z,101024.69
2023-04-15T11:51:36.378Z,101042.16
2023-04-15T11:56:38.994Z,101035.94
2023-04-15T12:01:43.559Z,101056.03
2023-04-15T12:06:47.523Z,101035.94
2023-04-15T12:11:51.548Z,101048.94
2023-04-15T12:16:58.199Z,101068.47
2023-04-15T12:22:05.547Z,101068.91
2023-04-15T12:27:09.615Z,101067.06
2023-04-15T12:32:13.536Z,101067.16
2023-04-15T12:37:18.319Z,101084.69
2023-04-15T12:42:22.454Z,101093.72
2023-04-15T12:47:25.044Z,101101.34
2023-04-15T12:52:28.991Z,101099.03
2023-04-15T12:57:32.256Z,101121.22
2023-04-15T13:02:35.194Z,101111.31
2023-04-15T13:07:39.345Z,101132.47
2023-04-15T13:12:41.941Z,101124.28
2023-04-15T13:17:44.540Z,101137.47
2023-04-15T13:22:48.436Z,101144.94
2023-04-15T13:27:51.345Z,101148.97
2023-04-15T13:32:54.534Z,101158.78
2023-04-15T13:37:59.133Z,101167.03
2023-04-15T13:43:02.049Z,101167.34
2023-04-15T13:48:04.931Z,101179.31
2023-04-15T13:53:08.807Z,101182.44
2023-04-15T13:58:12.293Z,101194.81
2023-04-15T14:03:14.960Z,101206.81
2023-04-15T14:08:18.927Z,101202.63
2023-04-15T14:13:21.507Z,101213.03
2023-04-15T14:18:24.084Z,101203.13
2023-04-15T14:23:28.128Z,101213.44
2023-04-15T14:28:32.030Z,101225.78
2023-04-15T14:33:34.709Z,101227.50
2023-04-15T14:38:39.884Z,101233.84
2023-04-15T14:43:42.545Z,101237.16
2023-04-15T14:48:46.586Z,101246.16
2023-04-15T14:53:52.090Z,101243.00
2023-04-15T14:58:55.945Z,101256.88
2023-04-15T15:03:59.149Z,101261.34
2023-04-15T15:09:05.230Z,101264.34
2023-04-15T15:14:09.456Z,101266.63
2023-04-15T15:19:13.285Z,101272.47
2023-04-15T15:24:17.655Z,101281.41
2023-04-15T15:29:20.605Z,101278.84
2023-04-15T15:34:23.143Z,101285.09
2023-04-15T15:39:27.141Z,101290.09
2023-04-15T15:44:30.338Z,101300.13
2023-04-15T15:49:32.988Z,101308.69
2023-04-15T15:54:37.657Z,101314.16
2023-04-15T15:59:43.496Z,101305.38
2023-04-15T16:04:46.415Z,101311.88
2023-04-15T16:09:50.706Z,101327.88
2023-04-15T16:14:53.299Z,101336.50
2023-04-15T16:20:00.840Z,101346.63
2023-04-15T16:25:05.769Z,101344.34
2023-04-15T16:30:09.783Z,101347.56
2023-04-15T16:35:14.284Z,101350.31
2023-04-15T16:40:19.056Z,101356.63
2023-04-15T16:45:21.626Z,101368.47
2023-04-15T16:50:25.015Z,101367.44
2023-04-15T16:55:29.122Z,101373.03
2023-04-15T17:00:32.022Z,101372.94
2023-04-15T17:05:34.643Z,101385.50
2023-04-15T17:10:38.814Z,101393.28
2023-04-15T17:15:41.535Z,101291.75
2023-04-15T17:20:44.145Z,101411.66
2023-04-15T17:25:48.923Z,101400.28
2023-04-15T17:30:52.032Z,101403.22
2023-04-15T17:35:54.705Z,101413.88
2023-04-15T17:40:59.061Z,101418.66
2023-04-15T17:46:01.969Z,101435.91
2023-04-15T17:51:04.646Z,101444.00
2023-04-15T17:56:08.619Z,101442.50
2023-04-15T18:01:12.150Z,101453.59
2023-04-15T18:06:16.431Z,101467.75
2023-04-15T18:11:20.613Z,101465.09
2023-04-15T18:16:23.367Z,101473.72
2023-04-15T18:21:27.008Z,101477.06
2023-04-15T18:26:30.932Z,101481.41
2023-04-15T18:31:33.510Z,101485.25
2023-04-15T18:36:39.216Z,101505.88
2023-04-15T18:41:43.383Z,101518.09
2023-04-15T18:46:46.477Z,101516.53
2023-04-15T18:51:49.830Z,101518.28
2023-04-15T18:56:54.136Z,101535.44
2023-04-15T19:01:56.930Z,101533.75
2023-04-15T19:07:00.178Z,101540.44
2023-04-15T19:12:04.857Z,101553.91
2023-04-15T19:17:07.479Z,101555.59
2023-04-15T19:22:11.802Z,101561.38
2023-04-15T19:27:16.375Z,101567.28
2023-04-15T19:32:18.990Z,101568.78
2023-04-15T19:37:23.468Z,101571.53
2023-04-15T19:42:27.383Z,101580.69
2023-04-15T19:47:30.122Z,101592.28
2023-04-15T19:52:32.793Z,101589.25
2023-04-15T19:57:36.689Z,101603.47
2023-04-15T20:02:39.318Z,101601.44
2023-04-15T20:07:45.018Z,101600.69
2023-04-15T20:12:53.203Z,101563.78
2023-04-15T20:17:56.289Z,101611.03
2023-04-15T20:22:59.600Z,101606.00
2023-04-15T20:28:03.786Z,101602.47
2023-04-15T20:33:07.787Z,101597.19
2023-04-15T20:38:11.316Z,101612.31
2023-04-15T20:43:16.412Z,101619.47
2023-04-15T20:48:20.096Z,101617.28
2023-04-15T20:53:22.896Z,101620.25
2023-04-15T20:58:27.259Z,101621.47
2023-04-15T21:03:29.945Z,101618.56
2023-04-15T21:08:32.567Z,101623.72
2023-04-15T21:13:36.468Z,101631.56
2023-04-15T21:18:38.999Z,101628.69
2023-04-15T21:23:42.377Z,101637.53
2023-04-15T21:28:46.646Z,101640.09
2023-04-15T21:33:49.462Z,101636.44
2023-04-15T21:38:51.989Z,101647.22
2023-04-15T21:43:55.913Z,101662.16
2023-04-15T21:48:58.455Z,101667.59
2023-04-15T21:54:01.106Z,101672.72
2023-04-15T21:59:05.205Z,101671.19
2023-04-15T22:04:08.150Z,101682.88
2023-04-15T22:09:13.492Z,101681.03
2023-04-15T22:14:18.112Z,101679.16
2023-04-15T22:19:21.231Z,101672.03
2023-04-15T22:24:38.147Z,101684.25
2023-04-15T22:29:44.271Z,101657.03
2023-04-15T22:34:46.810Z,101688.03
2023-04-15T22:39:49.432Z,101700.31
2023-04-15T22:44:53.291Z,101695.00
2023-04-15T22:49:55.923Z,101702.94
2023-04-15T22:54:58.511Z,101704.59
2023-04-15T23:00:02.936Z,101701.41
2023-04-15T23:05:12.640Z,101708.00
2023-04-15T23:10:15.975Z,101714.56
2023-04-15T23:15:19.972Z,101722.78
2023-04-15T23:20:22.564Z,101724.28
2023-04-15T23:25:25.182Z,101716.59
2023-04-15T23:30:29.170Z,101721.00
2023-04-15T23:35:31.735Z,101721.16
2023-04-15T23:40:34.351Z,101726.09
2023-04-15T23:45:38.216Z,101723.50
2023-04-15T23:50:40.873Z,101725.88
2023-04-15T23:55:43.490Z,101731.63
